createdAt,value
2023-04-13T00:03:27.552Z,99453.00
2023-04-13T00:08:34.789Z,99454.59
2023-04-13T00:13:45.092Z,99451.55
2023-04-13T00:18:52.681Z,99446.31
2023-04-13T00:23:58.273Z,99451.18
2023-04-13T00:29:03.837Z,99449.85
2023-04-13T00:34:09.592Z,99467.14
2023-04-13T00:39:15.857Z,99464.58
2023-04-13T00:44:22.401Z,99469.84
2023-04-13T00:49:28.317Z,99468.61
2023-04-13T00:54:35.756Z,99469.22
2023-04-13T00:59:41.502Z,99468.13
2023-04-13T01:04:48.850Z,99468.86
2023-04-13T01:10:18.696Z,99476.45
2023-04-13T01:15:26.213Z,99466.12
2023-04-13T01:20:33.813Z,99461.38
2023-04-13T01:25:54.130Z,99479.54
2023-04-13T01:31:04.687Z,99485.87
2023-04-13T01:36:12.632Z,99502.55
2023-04-13T01:41:18.636Z,99499.63
2023-04-13T01:46:27.568Z,99498.53
2023-04-13T01:51:46.836Z,99499.13
2023-04-13T01:56:57.287Z,99500.59
2023-04-13T02:02:02.917Z,99505.70
2023-04-13T02:07:12.066Z,99503.60
2023-04-13T02:12:19.260Z,99498.04
2023-04-13T02:17:25.764Z,99491.92
2023-04-13T02:22:31.286Z,99496.67
2023-04-13T02:27:37.127Z,99497.19
2023-04-13T02:32:44.987Z,99508.26
2023-04-13T02:37:50.735Z,99519.66
2023-04-13T02:42:57.429Z,99523.07
2023-04-13T02:48:04.956Z,99530.66
2023-04-13T02:53:10.823Z,99539.98
2023-04-13T02:58:17.400Z,99534.51
2023-04-13T03:03:24.775Z,99530.13
2023-04-13T03:08:30.690Z,99523.58
2023-04-13T03:13:47.234Z,99531.60
2023-04-13T03:18:54.706Z,99531.84
2023-04-13T03:24:01.069Z,99550.70
2023-04-13T03:29:07.181Z,99552.28
2023-04-13T03:34:14.304Z,99555.09
2023-04-13T03:39:20.704Z,99565.05
2023-04-13T03:44:26.388Z,99567.96
2023-04-13T03:49:32.316Z,99575.88
2023-04-13T03:54:38.342Z,99582.58
2023-04-13T03:59:43.961Z,99565.06
2023-04-13T04:04:51.221Z,99567.13
2023-04-13T04:09:56.914Z,99570.16
2023-04-13T04:15:02.648Z,99576.86
2023-04-13T04:20:11.482Z,99608.33
2023-04-13T04:25:18.909Z,99605.64
2023-04-13T04:30:28.441Z,99619.14
2023-04-13T04:35:34.438Z,99609.06
2023-04-13T04:40:42.863Z,99622.58
2023-04-13T04:45:51.543Z,99616.88
2023-04-13T04:50:58.190Z,99619.91
2023-04-13T04:56:05.795Z,99634.87
2023-04-13T05:01:15.707Z,99642.39
2023-04-13T05:06:21.472Z,99638.38
2023-04-13T05:11:27.406Z,99642.52
2023-04-13T05:16:34.876Z,99649.47
2023-04-13T05:21:42.065Z,99650.55
2023-04-13T05:26:47.745Z,99669.91
2023-04-13T05:31:54.963Z,99667.06
2023-04-13T05:37:00.957Z,99670.55
2023-04-13T05:42:06.820Z,99668.38
2023-04-13T05:47:14.015Z,99666.72
2023-04-13T05:52:22.251Z,99675.44
2023-04-13T05:57:27.972Z,99663.08
2023-04-13T06:02:35.077Z,99669.88
2023-04-13T06:07:42.669Z,99668.41
2023-04-13T06:12:48.674Z,99676.67
2023-04-13T06:17:55.392Z,99686.06
2023-04-13T06:23:01.484Z,99689.48
2023-04-13T06:28:08.158Z,99699.03
2023-04-13T06:33:15.662Z,99709.27
2023-04-13T06:38:21.732Z,99731.66
2023-04-13T06:43:32.020Z,99731.92
2023-04-13T06:48:56.230Z,99752.31
2023-04-13T06:54:04.149Z,99762.07
2023-04-13T06:59:09.787Z,99757.44
2023-04-13T07:04:15.509Z,99775.73
2023-04-13T07:09:22.251Z,99775.19
2023-04-13T07:14:27.837Z,99799.34
2023-04-13T07:19:34.607Z,99803.02
2023-04-13T07:24:40.273Z,99819.42
2023-04-13T07:29:47.663Z,99825.42
2023-04-13T07:34:56.653Z,99819.08
2023-04-13T07:40:02.920Z,99825.37
2023-04-13T07:45:12.218Z,99834.30
2023-04-13T07:50:18.318Z,99849.97
2023-04-13T07:55:24.961Z,99851.31
2023-04-13T08:00:30.898Z,99856.28
2023-04-13T08:05:38.613Z,99871.17
2023-04-13T08:10:45.841Z,99876.43
2023-04-13T08:15:54.670Z,99874.84
2023-04-13T08:21:01.829Z,99871.22
2023-04-13T08:26:07.773Z,99872.28
2023-04-13T08:31:17.095Z,99876.95
2023-04-13T08:36:27.590Z,99879.25
2023-04-13T08:41:41.559Z,99874.97
2023-04-13T08:46:51.238Z,99876.43
2023-04-13T08:52:03.836Z,99899.38
2023-04-13T08:57:13.737Z,99896.78
2023-04-13T09:02:26.749Z,99894.46
2023-04-13T09:07:36.818Z,99894.01
2023-04-13T09:12:44.225Z,99913.25
2023-04-13T09:17:50.761Z,99912.60
2023-04-13T09:22:58.699Z,99909.47
2023-04-13T09:28:05.642Z,99910.56
2023-04-13T09:33:12.991Z,99920.81
2023-04-13T09:38:18.749Z,99928.90
2023-04-13T09:43:24.550Z,99930.73
2023-04-13T09:48:32.008Z,99940.89
2023-04-13T09:53:48.428Z,99956.67
2023-04-13T09:58:54.512Z,99960.69
2023-04-13T10:04:02.187Z,99965.49
2023-04-13T10:09:08.971Z,99969.27
2023-04-13T10:14:26.806Z,99963.98
2023-04-13T10:19:44.330Z,99959.05
2023-04-13T10:24:53.123Z,99964.45
2023-04-13T10:30:00.955Z,99959.00
2023-04-13T10:35:15.331Z,99962.83
2023-04-13T10:40:21.121Z,99968.36
2023-04-13T10:45:39.988Z,99973.75
2023-04-13T10:50:45.508Z,99975.78
2023-04-13T10:55:52.938Z,99981.02
2023-04-13T11:01:00.190Z,99994.48
2023-04-13T11:06:07.052Z,99997.82
2023-04-13T11:11:15.178Z,99996.95
2023-04-13T11:16:21.092Z,99998.03
2023-04-13T11:21:27.138Z,99997.94
2023-04-13T11:26:43.192Z,100001.88
2023-04-13T11:31:48.499Z,100011.02
2023-04-13T11:37:04.910Z,100010.55
2023-04-13T11:42:10.783Z,100016.83
2023-04-13T11:47:18.940Z,100018.96
2023-04-13T11:52:25.044Z,100023.97
2023-04-13T11:57:30.929Z,100018.52
2023-04-13T12:02:51.480Z,100032.14
2023-04-13T12:07:46.636Z,100030.86
2023-04-13T12:13:17.505Z,100033.80
2023-04-13T12:18:15.632Z,100038.06
2023-04-13T12:23:24.307Z,100038.98
2023-04-13T12:28:34.628Z,100044.95
2023-04-13T12:33:40.814Z,100057.44
2023-04-13T12:38:46.494Z,100048.22
2023-04-13T12:43:51.975Z,100052.64
2023-04-13T12:48:57.986Z,100044.77
2023-04-13T12:54:03.871Z,100051.45
2023-04-13T12:59:09.592Z,100059.94
2023-04-13T13:04:15.148Z,100061.67
2023-04-13T13:09:20.869Z,100067.28
2023-04-13T13:14:26.447Z,100063.54
2023-04-13T13:19:32.139Z,100059.59
2023-04-13T13:24:39.258Z,100066.80
2023-04-13T13:29:45.319Z,100058.38
2023-04-13T13:34:51.173Z,100059.69
2023-04-13T13:39:56.715Z,100058.75
2023-04-13T13:45:02.325Z,100056.24
2023-04-13T13:50:08.836Z,100059.81
2023-04-13T13:55:17.951Z,100076.47
2023-04-13T14:00:24.035Z,100071.36
2023-04-13T14:05:29.475Z,100077.69
2023-04-13T14:10:37.109Z,100078.39
2023-04-13T14:15:42.684Z,100072.73
2023-04-13T14:20:48.366Z,100069.22
2023-04-13T14:25:53.874Z,100095.78
2023-04-13T14:30:59.524Z,100097.97
2023-04-13T14:36:07.158Z,100105.96
2023-04-13T14:41:12.634Z,100093.88
2023-04-13T14:46:18.339Z,100093.02
2023-04-13T14:51:24.184Z,100098.08
2023-04-13T14:56:30.037Z,100099.16
2023-04-13T15:01:35.706Z,100095.23
2023-04-13T15:06:41.341Z,100114.53
2023-04-13T15:11:49.368Z,100108.36
2023-04-13T15:16:54.922Z,100117.14
2023-04-13T15:22:00.616Z,100116.03
2023-04-13T15:27:06.163Z,100114.30
2023-04-13T15:32:11.788Z,100118.39
2023-04-13T15:37:17.277Z,100121.63
2023-04-13T15:42:23.243Z,100126.59
2023-04-13T15:47:29.778Z,100125.23
2023-04-13T15:52:38.721Z,100126.17
2023-04-13T15:57:44.324Z,100125.28
2023-04-13T16:02:50.181Z,100133.65
2023-04-13T16:08:03.962Z,100139.50
2023-04-13T16:13:11.163Z,100151.44
2023-04-13T16:18:16.683Z,100154.66
2023-04-13T16:23:22.140Z,100162.84
2023-04-13T16:28:28.886Z,100165.70
2023-04-13T16:33:34.567Z,100176.28
2023-04-13T16:38:42.735Z,100176.21
2023-04-13T16:43:48.343Z,100184.75
2023-04-13T16:48:53.889Z,100179.11
2023-04-13T16:53:59.395Z,100058.06
2023-04-13T16:59:06.856Z,100186.56
2023-04-13T17:04:13.089Z,100196.72
2023-04-13T17:09:18.619Z,100201.56
2023-04-13T17:14:24.177Z,100205.50
2023-04-13T17:19:29.744Z,100215.95
2023-04-13T17:24:36.782Z,100229.80
2023-04-13T17:29:42.240Z,100230.00
2023-04-13T17:34:48.038Z,100243.03
2023-04-13T17:39:53.487Z,100237.67
2023-04-13T17:44:58.965Z,100242.75
2023-04-13T17:50:04.590Z,100246.08
2023-04-13T17:55:10.891Z,100243.52
2023-04-13T18:00:17.127Z,100262.52
2023-04-13T18:05:22.906Z,100267.34
2023-04-13T18:10:28.446Z,100275.67
2023-04-13T18:15:33.877Z,100275.75
2023-04-13T18:20:39.523Z,100280.17
2023-04-13T18:25:46.551Z,100287.34
2023-04-13T18:30:52.117Z,100287.20
2023-04-13T18:35:57.553Z,100289.69
2023-04-13T18:41:03.472Z,100297.44
2023-04-13T18:46:09.158Z,100308.92
2023-04-13T18:51:14.679Z,100308.83
2023-04-13T18:56:20.954Z,100307.59
2023-04-13T19:01:26.578Z,100309.05
2023-04-13T19:06:32.156Z,100302.39
2023-04-13T19:11:49.162Z,100302.97
2023-04-13T19:16:55.554Z,100310.21
2023-04-13T19:22:01.246Z,100311.91
2023-04-13T19:27:06.698Z,100319.00
2023-04-13T19:32:15.332Z,100319.84
2023-04-13T19:37:21.416Z,100324.66
2023-04-13T19:42:27.119Z,100324.28
2023-04-13T19:47:32.692Z,100327.34
2023-04-13T19:52:38.951Z,100333.58
2023-04-13T19:57:44.490Z,100340.53
2023-04-13T20:02:52.622Z,100340.09
2023-04-13T20:07:58.673Z,100346.64
2023-04-13T20:13:04.280Z,100348.23
2023-04-13T20:18:10.556Z,100349.19
2023-04-13T20:23:16.605Z,100353.95
2023-04-13T20:28:22.113Z,100351.85
2023-04-13T20:33:27.578Z,100359.06
2023-04-13T20:38:34.668Z,100363.84
2023-04-13T20:43:41.453Z,100363.30
2023-04-13T20:48:48.996Z,100384.11
2023-04-13T20:53:55.626Z,100414.57
2023-04-13T20:59:01.702Z,100409.23
2023-04-13T21:04:07.361Z,100407.13
2023-04-13T21:09:13.746Z,100417.16
2023-04-13T21:14:20.935Z,100411.89
2023-04-13T21:19:27.793Z,100405.30
2023-04-13T21:24:33.321Z,100410.61
2023-04-13T21:29:38.763Z,100411.38
2023-04-13T21:34:44.296Z,100400.01
2023-04-13T21:39:49.909Z,100394.66
2023-04-13T21:44:57.281Z,100381.89
2023-04-13T21:50:02.920Z,100384.79
2023-04-13T21:55:10.629Z,100380.98
2023-04-13T22:00:19.832Z,100372.25
2023-04-13T22:05:24.619Z,100375.79
2023-04-13T22:10:30.106Z,100364.12
2023-04-13T22:15:35.820Z,100357.73
2023-04-13T22:20:41.649Z,100345.92
2023-04-13T22:25:55.958Z,100334.36
2023-04-13T22:31:09.418Z,100330.94
2023-04-13T22:36:20.307Z,100337.95
2023-04-13T22:41:25.752Z,100318.86
2023-04-13T22:46:31.533Z,100325.63
2023-04-13T22:51:40.994Z,100319.16
2023-04-13T22:56:47.081Z,100319.31
2023-04-13T23:01:52.704Z,100317.58
2023-04-13T23:06:58.452Z,100324.39
2023-04-13T23:12:04.021Z,100331.25
2023-04-13T23:17:09.467Z,100342.70
2023-04-13T23:22:14.905Z,100349.09
2023-04-13T23:27:20.604Z,100357.98
2023-04-13T23:32:26.189Z,100360.72
2023-04-13T23:37:31.816Z,100367.13
2023-04-13T23:42:37.403Z,100375.61
2023-04-13T23:47:43.127Z,100386.22
2023-04-13T23:52:48.687Z,100382.95
2023-04-13T23:57:54.131Z,100376.92
